ěÝzenÝ letovÚho provozu ╚eskÚ republiky
Letiste: LKPR Aktualizace: 24.09.2023 03:00:39  UTC
 METAR LKPR 24.09. 03:00 ...
METAR LKPR 240300Z 23006KT CAVOK 08/06 Q1024 NOSIG=
 TAF LKPR 24.09. 02:00 ...
TAF LKPR 240200Z 2403/2509 28006KT CAVOK      PROB30 TEMPO 2404/2407 VRB02KT 5000 BR NSC      BECMG 2407/2409 36006KT      TEMPO 2410/2417 03011KT 9999 BKN030      BECMG 2423/2501 VRB02KT 3000 BR SCT003      PROB40 TEMPO 2502/2507 1000 BCFG BKN002=